Time;durP1;ratioP1;P1;durP2;ratioP2;P2;SDS_P1;SDS_P2;PMS_P1;PMS_P2;Temp;Humidity;BMP_temperature;BMP_pressure;BME280_temperature;BME280_humidity;BME280_pressure;Samples;Min_cycle;Max_cycle;Signal;HPM_P1;HPM_P2
2022/07/23 00:01:41;;;;;;;16.50;13.43;;;16.20;99.90;;;;;;5075349;28;20021;-60
2022/07/23 00:04:06;;;;;;;21.05;13.48;;;16.20;99.90;;;;;;5074888;28;20032;-60
2022/07/23 00:06:32;;;;;;;24.67;14.45;;;16.30;99.90;;;;;;5073573;28;20136;-61
2022/07/23 00:08:58;;;;;;;20.48;14.90;;;16.30;99.90;;;;;;5075268;28;20402;-61
2022/07/23 00:11:23;;;;;;;21.35;15.38;;;16.30;99.90;;;;;;5074603;28;20060;-61
2022/07/23 00:13:49;;;;;;;25.13;15.65;;;16.20;99.90;;;;;;5074954;28;20389;-60
2022/07/23 00:16:15;;;;;;;19.67;15.43;;;16.30;99.90;;;;;;5074514;28;20020;-61
2022/07/23 00:18:40;;;;;;;26.80;16.88;;;16.30;99.90;;;;;;5074625;28;20054;-61
2022/07/23 00:21:07;;;;;;;23.88;17.40;;;16.20;99.90;;;;;;5073232;28;20076;-60
2022/07/23 00:23:33;;;;;;;21.40;16.63;;;16.20;99.90;;;;;;5074452;28;20052;-61
2022/07/23 00:25:58;;;;;;;25.55;17.33;;;16.20;99.90;;;;;;5074654;28;20421;-61
2022/07/23 00:28:25;;;;;;;23.95;18.42;;;16.30;99.90;;;;;;5074709;28;20025;-61
2022/07/23 00:30:50;;;;;;;24.50;17.33;;;16.40;99.90;;;;;;5074285;28;20504;-61
2022/07/23 00:33:16;;;;;;;19.23;16.55;;;16.50;99.90;;;;;;5074202;28;20021;-61
2022/07/23 00:35:42;;;;;;;21.35;16.60;;;16.40;99.90;;;;;;5074274;28;20098;-61
2022/07/23 00:38:09;;;;;;;21.52;15.23;;;16.30;99.90;;;;;;5074639;28;20020;-61
2022/07/23 00:40:36;;;;;;;27.25;17.35;;;16.10;99.90;;;;;;5072769;28;20494;-61
2022/07/23 00:43:02;;;;;;;23.73;17.90;;;16.10;99.90;;;;;;5073884;28;20024;-62
2022/07/23 00:45:29;;;;;;;25.33;18.05;;;16.20;99.90;;;;;;5074033;28;20067;-61
2022/07/23 00:47:55;;;;;;;27.90;18.77;;;16.10;99.90;;;;;;5074088;28;20025;-61
2022/07/23 00:50:21;;;;;;;25.17;18.40;;;16.00;99.90;;;;;;5073844;28;20032;-62
2022/07/23 00:52:47;;;;;;;25.15;19.42;;;16.00;99.90;;;;;;5073948;28;20051;-61
2022/07/23 00:55:13;;;;;;;24.00;19.15;;;16.00;99.90;;;;;;5073945;28;20029;-61
2022/07/23 00:57:40;;;;;;;27.13;19.27;;;16.00;99.90;;;;;;5073850;28;20044;-61
2022/07/23 01:00:12;;;;;;;28.40;19.77;;;16.00;99.90;;;;;;5074346;28;20123;-61
2022/07/23 01:02:38;;;;;;;28.10;19.63;;;16.10;99.90;;;;;;5073696;28;20028;-61
2022/07/23 01:05:05;;;;;;;26.85;20.90;;;16.10;99.90;;;;;;5073815;28;20392;-62
2022/07/23 01:07:31;;;;;;;24.52;21.48;;;16.10;99.90;;;;;;5072394;28;20055;-62
2022/07/23 01:09:57;;;;;;;25.35;20.55;;;16.20;99.90;;;;;;5074114;28;20050;-61
2022/07/23 01:12:23;;;;;;;33.22;20.30;;;16.10;99.90;;;;;;5072459;28;20033;-60
2022/07/23 01:14:55;;;;;;;23.65;19.05;;;16.10;99.90;;;;;;5073706;28;20456;-62
2022/07/23 01:17:21;;;;;;;26.40;19.35;;;16.00;99.90;;;;;;5073546;28;20023;-61
2022/07/23 01:19:47;;;;;;;24.30;19.05;;;16.10;99.90;;;;;;5073862;28;20115;-61
2022/07/23 01:22:14;;;;;;;24.75;19.20;;;16.10;99.90;;;;;;5073634;28;20047;-61
2022/07/23 01:24:40;;;;;;;24.00;19.35;;;16.00;99.90;;;;;;5072040;28;20037;-61
2022/07/23 01:27:05;;;;;;;26.05;20.83;;;16.10;99.90;;;;;;5073551;28;20039;-60
2022/07/23 01:29:31;;;;;;;28.17;21.27;;;16.00;99.90;;;;;;5073520;28;20024;-61
2022/07/23 01:31:57;;;;;;;25.92;19.65;;;16.00;99.90;;;;;;5073281;28;20488;-61
2022/07/23 01:34:22;;;;;;;23.67;19.40;;;16.00;99.90;;;;;;5073618;28;20025;-60
2022/07/23 01:36:48;;;;;;;28.00;20.17;;;16.00;99.90;;;;;;5071966;28;20492;-61
2022/07/23 01:39:13;;;;;;;27.50;21.08;;;16.10;99.90;;;;;;5073491;28;20028;-61
2022/07/23 01:41:40;;;;;;;29.33;22.00;;;16.10;99.90;;;;;;5073305;28;20445;-61
2022/07/23 01:44:06;;;;;;;28.00;21.88;;;16.10;99.90;;;;;;5072938;28;20025;-62
2022/07/23 01:46:32;;;;;;;28.58;21.73;;;16.10;99.90;;;;;;5073367;28;20038;-61
2022/07/23 01:48:57;;;;;;;28.90;21.85;;;16.10;99.90;;;;;;5071816;28;20449;-62
2022/07/23 01:51:23;;;;;;;28.85;21.10;;;16.10;99.90;;;;;;5072744;28;20033;-61
2022/07/23 01:53:49;;;;;;;30.67;21.70;;;16.10;99.90;;;;;;5072938;28;20424;-61
2022/07/23 01:56:15;;;;;;;25.45;20.33;;;16.10;99.90;;;;;;5072852;28;20032;-61
2022/07/23 01:58:40;;;;;;;31.95;22.75;;;16.10;99.90;;;;;;5072615;28;20043;-61
2022/07/23 02:01:06;;;;;;;30.45;23.65;;;16.10;99.90;;;;;;5072855;28;20366;-61
2022/07/23 02:03:32;;;;;;;28.80;23.20;;;16.10;99.90;;;;;;5072360;28;20024;-60
2022/07/23 02:05:57;;;;;;;29.08;21.75;;;16.00;99.90;;;;;;5072817;28;20435;-60
2022/07/23 02:08:23;;;;;;;28.42;21.08;;;16.00;99.90;;;;;;5072442;28;20024;-62
2022/07/23 02:10:51;;;;;;;27.00;20.35;;;15.90;99.90;;;;;;5072666;28;20086;-61
2022/07/23 02:13:16;;;;;;;27.70;22.02;;;15.70;99.90;;;;;;5072665;28;20490;-60
2022/07/23 02:15:43;;;;;;;30.08;22.38;;;15.70;99.90;;;;;;5072703;28;20104;-60
2022/07/23 02:18:08;;;;;;;28.83;22.80;;;15.80;99.90;;;;;;5072695;28;20150;-62
2022/07/23 02:20:38;;;;;;;28.10;23.08;;;15.70;99.90;;;;;;5072119;28;20074;-61
2022/07/23 02:23:04;;;;;;;32.95;23.05;;;15.70;99.90;;;;;;5072144;28;20488;-61
2022/07/23 02:25:29;;;;;;;28.23;21.92;;;15.70;99.90;;;;;;5072212;28;20071;-62
2022/07/23 02:27:55;;;;;;;32.20;21.08;;;15.70;99.90;;;;;;5072305;28;20358;-61
2022/07/23 02:30:21;;;;;;;28.05;21.20;;;15.70;99.90;;;;;;5071904;28;20366;-61
2022/07/23 02:32:46;;;;;;;25.73;20.40;;;15.80;99.90;;;;;;5072365;28;20047;-61
2022/07/23 02:35:12;;;;;;;27.15;20.60;;;15.70;99.90;;;;;;5071856;28;20020;-61
2022/07/23 02:37:37;;;;;;;27.63;20.05;;;15.80;99.90;;;;;;5071960;28;20448;-60
2022/07/23 02:40:04;;;;;;;28.08;18.92;;;15.70;99.90;;;;;;5071973;28;20028;-61
2022/07/23 02:42:29;;;;;;;27.13;18.33;;;15.60;99.90;;;;;;5071528;28;20128;-61
2022/07/23 02:44:55;;;;;;;24.83;19.45;;;15.60;99.90;;;;;;5071653;28;20056;-61
2022/07/23 02:47:20;;;;;;;28.50;20.15;;;15.50;99.90;;;;;;5071548;28;20111;-61
2022/07/23 02:49:46;;;;;;;26.92;19.17;;;15.50;99.90;;;;;;5071851;28;20050;-63
2022/07/23 02:52:12;;;;;;;26.73;20.38;;;15.40;99.90;;;;;;5071366;28;20028;-60
2022/07/23 02:54:37;;;;;;;23.75;19.55;;;15.40;99.90;;;;;;5071422;28;20036;-61
2022/07/23 02:57:04;;;;;;;23.08;19.45;;;15.30;99.90;;;;;;5071725;28;20032;-61
2022/07/23 02:59:30;;;;;;;31.33;20.95;;;15.30;99.90;;;;;;5070595;28;20093;-60
2022/07/23 03:01:56;;;;;;;28.40;19.98;;;15.30;99.90;;;;;;5071464;28;20029;-61
2022/07/23 03:04:22;;;;;;;27.42;20.88;;;15.30;99.90;;;;;;5071526;28;20484;-61
2022/07/23 03:06:47;;;;;;;28.27;21.02;;;15.40;99.90;;;;;;5071149;28;20370;-60
2022/07/23 03:09:13;;;;;;;29.05;20.65;;;15.40;99.90;;;;;;5071620;28;20484;-61
2022/07/23 03:11:39;;;;;;;28.27;20.35;;;15.60;99.90;;;;;;5071221;28;20036;-60
2022/07/23 03:14:05;;;;;;;25.70;20.48;;;15.60;99.90;;;;;;5070886;28;20090;-62
2022/07/23 03:16:31;;;;;;;29.98;20.25;;;15.60;99.90;;;;;;5069396;28;20166;-61
2022/07/23 03:18:56;;;;;;;27.05;20.20;;;15.50;99.90;;;;;;5071433;28;20095;-61
2022/07/23 03:21:22;;;;;;;26.25;19.10;;;15.40;99.90;;;;;;5071231;28;20036;-61
2022/07/23 03:23:48;;;;;;;28.50;20.40;;;15.30;99.90;;;;;;5071116;28;20024;-61
2022/07/23 03:26:13;;;;;;;30.67;21.25;;;15.40;99.90;;;;;;5071075;28;20089;-61
2022/07/23 03:28:39;;;;;;;27.73;20.02;;;15.40;99.90;;;;;;5071622;28;20039;-61
2022/07/23 03:31:05;;;;;;;31.25;20.20;;;15.50;99.90;;;;;;5070974;28;20036;-61
2022/07/23 03:33:30;;;;;;;26.55;20.38;;;15.50;99.90;;;;;;5070976;28;20017;-61
2022/07/23 03:35:56;;;;;;;25.88;20.67;;;15.50;99.90;;;;;;5071378;28;20116;-60
2022/07/23 03:38:21;;;;;;;26.88;21.45;;;15.50;99.90;;;;;;5071590;28;20024;-61
2022/07/23 03:40:47;;;;;;;28.25;21.80;;;15.50;99.90;;;;;;5071137;28;20041;-61
2022/07/23 03:43:13;;;;;;;27.40;22.30;;;15.50;99.90;;;;;;5071109;28;20020;-61
2022/07/23 03:45:38;;;;;;;30.15;23.58;;;15.50;99.90;;;;;;5071032;28;20036;-61
2022/07/23 03:48:04;;;;;;;27.88;22.08;;;15.70;99.90;;;;;;5071308;28;20031;-62
2022/07/23 03:50:30;;;;;;;29.67;23.70;;;15.60;99.90;;;;;;5069541;28;20506;-62
2022/07/23 03:52:55;;;;;;;27.55;22.95;;;15.50;99.90;;;;;;5071133;28;20078;-62
2022/07/23 03:55:21;;;;;;;27.27;22.17;;;15.50;99.90;;;;;;5071427;28;20025;-62
2022/07/23 03:57:47;;;;;;;33.58;24.48;;;15.40;99.90;;;;;;5071148;28;20292;-63
2022/07/23 04:00:13;;;;;;;31.92;24.98;;;15.70;99.90;;;;;;5069650;28;20473;-61
2022/07/23 04:02:39;;;;;;;32.92;25.60;;;15.60;99.90;;;;;;5070860;28;20095;-61
2022/07/23 04:05:05;;;;;;;32.97;24.95;;;15.50;99.90;;;;;;5070899;28;20059;-61
2022/07/23 04:07:31;;;;;;;28.70;23.83;;;15.50;99.90;;;;;;5070869;28;20020;-61
2022/07/23 04:09:56;;;;;;;33.40;27.15;;;15.40;99.90;;;;;;5071012;28;20031;-61
2022/07/23 04:12:23;;;;;;;33.97;26.98;;;15.60;99.90;;;;;;5070838;28;20500;-61
2022/07/23 04:14:48;;;;;;;34.95;27.67;;;15.50;99.90;;;;;;5070978;28;20465;-62
2022/07/23 04:17:14;;;;;;;35.92;28.38;;;15.40;99.90;;;;;;5070586;28;20025;-61
2022/07/23 04:19:41;;;;;;;34.92;28.40;;;15.50;99.90;;;;;;5070615;28;20029;-61
2022/07/23 04:22:11;;;;;;;32.50;27.27;;;15.40;99.90;;;;;;5070826;28;20063;-61
2022/07/23 04:24:37;;;;;;;29.45;25.45;;;15.40;99.90;;;;;;5070708;28;20032;-61
2022/07/23 04:27:03;;;;;;;29.08;24.15;;;15.30;99.90;;;;;;5073105;28;20489;-61
2022/07/23 04:29:29;;;;;;;30.08;24.05;;;15.30;99.90;;;;;;5074767;28;20024;-61
2022/07/23 04:31:55;;;;;;;26.88;22.88;;;15.30;99.90;;;;;;5074315;28;20560;-62
2022/07/23 04:34:21;;;;;;;30.00;23.52;;;15.30;99.90;;;;;;5074506;28;20021;-62
2022/07/23 04:36:47;;;;;;;36.03;24.55;;;15.40;99.90;;;;;;5074229;28;20481;-62
2022/07/23 04:39:13;;;;;;;30.98;24.25;;;15.40;99.90;;;;;;5074565;28;20083;-62
2022/07/23 04:41:39;;;;;;;29.30;23.65;;;15.50;99.90;;;;;;5072891;28;20033;-62
2022/07/23 04:44:04;;;;;;;27.92;22.67;;;15.60;99.90;;;;;;5074430;28;20036;-62
2022/07/23 04:46:30;;;;;;;29.58;22.13;;;15.70;99.90;;;;;;5073916;28;20060;-61
2022/07/23 04:48:56;;;;;;;27.90;21.60;;;15.70;99.90;;;;;;5074254;28;20024;-61
2022/07/23 04:51:22;;;;;;;25.40;20.70;;;15.80;99.90;;;;;;5074020;28;20059;-62
2022/07/23 04:53:47;;;;;;;24.77;19.63;;;15.90;99.90;;;;;;5072742;28;20124;-61
2022/07/23 04:56:13;;;;;;;24.92;20.00;;;16.00;99.90;;;;;;5073972;28;20027;-62
2022/07/23 04:58:39;;;;;;;24.15;20.00;;;16.10;99.90;;;;;;5074063;28;20049;-62
2022/07/23 05:01:04;;;;;;;25.58;19.50;;;16.20;99.90;;;;;;5072741;28;20032;-62
2022/07/23 05:03:30;;;;;;;23.73;19.42;;;16.20;99.90;;;;;;5073640;28;20033;-61
2022/07/23 05:05:56;;;;;;;23.75;18.85;;;16.20;99.90;;;;;;5073560;28;20032;-61
2022/07/23 05:08:21;;;;;;;27.35;18.63;;;16.20;99.90;;;;;;5072655;28;20024;-62
2022/07/23 05:10:47;;;;;;;23.40;19.00;;;16.20;99.90;;;;;;5073586;28;20036;-61
2022/07/23 05:13:15;;;;;;;23.27;18.55;;;16.20;99.90;;;;;;5073483;28;20104;-61
2022/07/23 05:15:42;;;;;;;22.80;19.13;;;16.30;99.90;;;;;;5073569;28;20032;-61
2022/07/23 05:18:07;;;;;;;22.77;18.77;;;16.30;99.90;;;;;;5074077;28;20032;-61
2022/07/23 05:20:33;;;;;;;25.98;20.13;;;16.40;99.90;;;;;;5073462;28;20078;-61
2022/07/23 05:22:58;;;;;;;25.08;18.50;;;16.40;99.90;;;;;;5073593;28;20020;-62
2022/07/23 05:25:24;;;;;;;25.02;17.92;;;16.50;99.90;;;;;;5073459;28;20477;-62
2022/07/23 05:27:50;;;;;;;22.45;18.30;;;16.50;99.90;;;;;;5073230;28;20017;-61
2022/07/23 05:30:15;;;;;;;24.30;18.35;;;16.60;99.90;;;;;;5073076;28;20032;-62
2022/07/23 05:32:41;;;;;;;21.35;17.77;;;16.80;99.90;;;;;;5071956;28;20020;-61
2022/07/23 05:35:08;;;;;;;21.08;17.52;;;16.80;99.90;;;;;;5072957;28;20025;-62
2022/07/23 05:37:34;;;;;;;21.50;17.17;;;16.80;99.90;;;;;;5072354;28;20066;-61
2022/07/23 05:40:04;;;;;;;23.95;17.38;;;16.90;99.90;;;;;;5072790;28;20033;-62
2022/07/23 05:42:29;;;;;;;19.48;17.23;;;16.90;99.90;;;;;;5073658;28;20033;-61
2022/07/23 05:44:55;;;;;;;21.73;16.52;;;17.00;99.90;;;;;;5073058;28;20550;-62
2022/07/23 05:47:21;;;;;;;23.60;17.48;;;17.10;99.90;;;;;;5072747;28;20336;-63
2022/07/23 05:49:46;;;;;;;22.33;16.80;;;17.30;99.90;;;;;;5073139;28;20055;-62
2022/07/23 05:52:12;;;;;;;20.40;16.73;;;17.40;99.90;;;;;;5072949;28;20077;-61
2022/07/23 05:54:37;;;;;;;18.95;16.73;;;17.60;99.90;;;;;;5072733;28;20394;-63
2022/07/23 05:57:03;;;;;;;22.67;16.58;;;17.60;99.90;;;;;;5071431;28;20024;-62
2022/07/23 05:59:30;;;;;;;20.50;15.85;;;17.70;99.90;;;;;;5072630;28;20110;-62
2022/07/23 06:01:55;;;;;;;20.90;16.00;;;17.80;99.90;;;;;;5072343;28;20489;-61
2022/07/23 06:04:21;;;;;;;23.13;17.10;;;18.00;99.90;;;;;;5072570;28;20032;-62
2022/07/23 06:06:50;;;;;;;19.30;16.15;;;18.40;99.90;;;;;;5072462;28;20459;-62
2022/07/23 06:09:16;;;;;;;22.17;17.08;;;18.50;99.90;;;;;;5072717;28;20036;-62
2022/07/23 06:11:41;;;;;;;21.40;16.25;;;18.60;99.90;;;;;;5072680;28;20032;-63
2022/07/23 06:14:07;;;;;;;24.00;16.63;;;18.50;99.90;;;;;;5072535;28;20052;-62
2022/07/23 06:16:33;;;;;;;24.20;16.88;;;18.50;99.90;;;;;;5072441;28;20017;-63
2022/07/23 06:18:58;;;;;;;18.52;16.40;;;18.30;99.90;;;;;;5072901;28;20424;-62
2022/07/23 06:21:24;;;;;;;24.83;16.52;;;18.10;99.90;;;;;;5072457;28;20031;-62
2022/07/23 06:23:49;;;;;;;19.95;15.10;;;17.90;99.90;;;;;;5072080;28;20024;-62
2022/07/23 06:26:15;;;;;;;20.30;14.90;;;18.00;99.90;;;;;;5072051;28;20028;-62
2022/07/23 06:28:41;;;;;;;19.75;14.90;;;18.20;99.90;;;;;;5072001;28;20037;-63
2022/07/23 06:31:07;;;;;;;16.75;14.75;;;18.20;99.90;;;;;;5071835;28;20070;-62
2022/07/23 06:33:33;;;;;;;20.80;15.07;;;18.20;99.90;;;;;;5072370;28;20388;-61
2022/07/23 06:35:59;;;;;;;20.15;15.52;;;18.40;99.90;;;;;;5071636;28;20035;-62
2022/07/23 06:38:24;;;;;;;17.90;15.25;;;18.40;99.90;;;;;;5071820;28;20541;-61
2022/07/23 06:40:50;;;;;;;20.35;15.07;;;18.50;99.90;;;;;;5071749;28;20502;-61
2022/07/23 06:43:16;;;;;;;17.67;15.75;;;18.60;99.90;;;;;;5072074;28;20028;-61
2022/07/23 06:45:41;;;;;;;18.20;16.30;;;18.80;99.90;;;;;;5071504;28;20171;-60
2022/07/23 06:48:07;;;;;;;23.67;17.67;;;18.90;99.90;;;;;;5072047;28;20032;-61
2022/07/23 06:50:33;;;;;;;24.88;17.20;;;18.90;99.90;;;;;;5071558;28;20485;-62
2022/07/23 06:52:58;;;;;;;22.13;17.05;;;18.90;99.90;;;;;;5072031;28;20470;-62
2022/07/23 06:55:24;;;;;;;20.23;15.70;;;19.00;99.90;;;;;;5071881;28;20392;-63
2022/07/23 06:57:49;;;;;;;16.83;13.40;;;19.10;99.90;;;;;;5071737;28;20119;-64
2022/07/23 07:00:15;;;;;;;14.00;12.50;;;19.80;99.90;;;;;;5071701;28;20024;-64
2022/07/23 07:02:41;;;;;;;14.20;11.85;;;21.00;99.90;;;;;;5071532;28;20055;-64
2022/07/23 07:05:07;;;;;;;14.88;12.27;;;22.30;99.90;;;;;;5071435;28;20038;-68
2022/07/23 07:07:33;;;;;;;14.68;11.90;;;23.60;99.90;;;;;;5071534;28;20412;-65
2022/07/23 07:09:59;;;;;;;13.43;10.75;;;24.30;99.90;;;;;;5071662;28;20075;-64
2022/07/23 07:12:25;;;;;;;15.68;10.90;;;25.00;99.90;;;;;;5071476;28;20056;-65
2022/07/23 07:14:50;;;;;;;12.30;10.60;;;26.00;99.90;;;;;;5071673;28;20354;-64
2022/07/23 07:17:16;;;;;;;12.20;10.35;;;26.50;99.90;;;;;;5071446;28;20020;-65
2022/07/23 07:19:42;;;;;;;13.63;9.93;;;26.60;99.90;;;;;;5071340;28;20025;-64
2022/07/23 07:22:07;;;;;;;10.75;9.40;;;27.30;99.90;;;;;;5071478;28;20027;-65
2022/07/23 07:24:33;;;;;;;11.07;9.13;;;27.70;99.90;;;;;;5071545;28;20028;-65
2022/07/23 07:26:59;;;;;;;9.98;8.93;;;28.10;99.90;;;;;;5071050;28;20025;-65
2022/07/23 07:29:24;;;;;;;11.32;9.25;;;27.80;99.90;;;;;;5071194;28;20029;-66
2022/07/23 07:31:50;;;;;;;10.98;8.90;;;27.90;99.90;;;;;;5071244;28;20025;-67
2022/07/23 07:34:16;;;;;;;11.23;8.55;;;29.00;99.90;;;;;;5070924;28;20029;-65
2022/07/23 07:36:43;;;;;;;9.60;8.60;;;29.40;98.50;;;;;;5070946;28;20028;-65
2022/07/23 07:39:10;;;;;;;9.25;8.35;;;30.00;97.40;;;;;;5071073;28;20139;-65
2022/07/23 07:41:36;;;;;;;10.18;8.05;;;30.40;95.30;;;;;;5070692;28;20020;-65
2022/07/23 07:44:01;;;;;;;9.73;8.70;;;31.30;93.40;;;;;;5070867;28;20024;-65
2022/07/23 07:46:27;;;;;;;10.40;8.55;;;30.40;93.70;;;;;;5070784;28;20016;-65
2022/07/23 07:48:53;;;;;;;9.25;7.97;;;30.20;93.60;;;;;;5069914;28;20020;-66
2022/07/23 07:51:19;;;;;;;10.85;8.60;;;29.90;94.10;;;;;;5070908;28;20033;-65
2022/07/23 07:53:44;;;;;;;8.95;7.57;;;30.90;92.60;;;;;;5071325;28;20024;-65
2022/07/23 07:56:10;;;;;;;9.75;7.95;;;31.60;91.20;;;;;;5069222;28;20473;-65
2022/07/23 07:58:35;;;;;;;9.57;7.88;;;32.00;89.90;;;;;;5070791;28;20098;-65
2022/07/23 08:01:02;;;;;;;11.23;8.73;;;30.90;90.40;;;;;;5071661;28;20027;-65
2022/07/23 08:03:28;;;;;;;8.18;7.38;;;30.40;92.20;;;;;;5074660;28;20103;-65
2022/07/23 08:05:53;;;;;;;8.18;7.47;;;29.90;92.90;;;;;;5074631;28;20115;-65
2022/07/23 08:08:19;;;;;;;10.15;8.00;;;29.10;93.30;;;;;;5075053;28;20077;-65
2022/07/23 08:10:45;;;;;;;10.45;8.35;;;29.10;94.30;;;;;;5073123;28;20028;-64
2022/07/23 08:13:14;;;;;;;9.38;7.85;;;28.90;95.00;;;;;;5074363;28;20021;-63
2022/07/23 08:15:40;;;;;;;9.98;7.82;;;27.80;97.70;;;;;;5074386;28;20032;-65
2022/07/23 08:18:06;;;;;;;8.93;7.15;;;28.40;96.00;;;;;;5074651;28;20355;-64
2022/07/23 08:20:32;;;;;;;9.25;6.82;;;28.60;94.70;;;;;;5074306;28;20029;-64
2022/07/23 08:22:59;;;;;;;10.65;7.95;;;29.40;93.80;;;;;;5072795;28;20021;-64
2022/07/23 08:25:30;;;;;;;10.10;7.47;;;30.30;91.90;;;;;;5074499;28;20029;-64
2022/07/23 08:28:00;;;;;;;9.43;7.38;;;29.50;92.40;;;;;;5074379;28;20384;-64
2022/07/23 08:30:27;;;;;;;8.20;7.35;;;29.00;92.80;;;;;;5073900;28;20082;-64
2022/07/23 08:32:53;;;;;;;9.75;7.32;;;28.60;94.20;;;;;;5074018;28;20067;-64
2022/07/23 08:35:23;;;;;;;12.07;7.15;;;28.10;94.70;;;;;;5074213;28;20026;-64
2022/07/23 08:37:49;;;;;;;9.20;7.88;;;27.80;95.30;;;;;;5074616;28;20017;-65
2022/07/23 08:40:14;;;;;;;10.73;7.70;;;27.90;95.40;;;;;;5072529;28;20020;-65
2022/07/23 08:42:40;;;;;;;8.88;7.38;;;27.50;95.90;;;;;;5073821;28;20109;-64
2022/07/23 08:45:08;;;;;;;8.32;6.55;;;26.20;98.70;;;;;;5074077;28;20477;-64
2022/07/23 08:47:36;;;;;;;7.70;6.28;;;26.90;97.20;;;;;;5073842;28;20028;-64
2022/07/23 08:50:02;;;;;;;7.78;5.10;;;27.20;95.20;;;;;;5073925;28;20032;-65
2022/07/23 08:52:30;;;;;;;6.75;5.70;;;28.30;92.20;;;;;;5073650;28;20028;-64
2022/07/23 08:54:57;;;;;;;9.50;7.20;;;28.80;92.00;;;;;;5073624;28;20039;-64
2022/07/23 08:57:22;;;;;;;8.43;7.53;;;29.00;92.00;;;;;;5073746;28;20020;-65
2022/07/23 08:59:48;;;;;;;10.02;6.85;;;28.00;93.10;;;;;;5072150;28;20066;-64
2022/07/23 09:02:13;;;;;;;8.45;6.25;;;27.60;94.90;;;;;;5073621;28;20493;-68
2022/07/23 09:04:39;;;;;;;5.68;5.13;;;28.10;92.70;;;;;;5073156;28;20122;-64
2022/07/23 09:07:05;;;;;;;3.67;3.38;;;28.70;89.90;;;;;;5072366;28;20028;-65
2022/07/23 09:09:31;;;;;;;8.82;5.13;;;28.40;86.50;;;;;;5073610;28;20082;-64
2022/07/23 09:12:09;;;;;;;8.48;4.90;;;28.60;88.70;;;;;;5073350;28;20025;-64
2022/07/23 09:14:43;;;;;;;6.93;5.18;;;28.90;88.90;;;;;;5072654;28;20062;-65
2022/07/23 09:17:10;;;;;;;7.05;5.10;;;30.40;87.00;;;;;;5073111;28;20377;-65
2022/07/23 09:19:35;;;;;;;5.18;4.68;;;30.90;82.90;;;;;;5074047;28;20112;-66
2022/07/23 09:22:28;;;;;;;8.65;5.38;;;31.20;82.00;;;;;;5073349;28;20494;-65
2022/07/23 09:25:11;;;;;;;6.97;5.43;;;30.60;83.40;;;;;;5072846;28;20438;-65
2022/07/23 09:27:50;;;;;;;5.97;5.10;;;29.60;84.50;;;;;;5073076;28;20025;-65
2022/07/23 09:30:16;;;;;;;7.95;4.78;;;29.50;85.10;;;;;;5073271;28;20033;-63
2022/07/23 09:32:42;;;;;;;7.68;4.60;;;29.40;85.20;;;;;;5073259;28;20052;-63
2022/07/23 09:35:08;;;;;;;6.95;4.80;;;30.50;81.00;;;;;;5073497;28;20032;-66
2022/07/23 09:37:34;;;;;;;6.53;4.22;;;30.00;79.50;;;;;;5072076;28;20116;-64
2022/07/23 09:40:09;;;;;;;5.55;3.55;;;30.30;78.70;;;;;;5073051;28;20116;-64
2022/07/23 09:42:35;;;;;;;5.25;3.97;;;30.60;79.80;;;;;;5071441;28;20027;-63
2022/07/23 09:45:01;;;;;;;5.88;3.90;;;30.30;79.80;;;;;;5073051;28;20029;-66
2022/07/23 09:47:29;;;;;;;4.55;3.75;;;30.60;78.00;;;;;;5072614;28;20052;-64
2022/07/23 09:50:05;;;;;;;5.10;4.60;;;29.90;79.00;;;;;;5073239;28;20039;-65
2022/07/23 09:52:35;;;;;;;4.05;3.65;;;29.80;80.00;;;;;;5073077;28;20366;-63
2022/07/23 09:55:03;;;;;;;5.07;4.00;;;31.20;77.30;;;;;;5072838;28;20032;-64
2022/07/23 09:57:28;;;;;;;4.15;2.88;;;31.20;74.20;;;;;;5072560;28;20064;-63
2022/07/23 09:59:58;;;;;;;4.57;3.38;;;30.80;72.10;;;;;;5072837;28;20059;-63
2022/07/23 10:02:26;;;;;;;5.03;3.50;;;30.80;73.70;;;;;;5072249;28;20799;-63
2022/07/23 10:04:53;;;;;;;6.50;3.42;;;31.60;72.70;;;;;;5073104;28;20032;-69
2022/07/23 10:07:22;;;;;;;3.65;2.28;;;30.40;73.90;;;;;;5072347;28;20089;-63
2022/07/23 10:09:50;;;;;;;1.98;1.75;;;30.40;71.10;;;;;;5073017;28;20409;-63
2022/07/23 10:13:01;;;;;;;3.10;2.03;;;29.70;69.30;;;;;;5072424;28;20024;-63
2022/07/23 10:15:07;;;;;;;4.05;1.73;;;29.30;73.60;;;;;;5070947;28;20032;-64
2022/07/23 10:17:34;;;;;;;2.10;1.90;;;29.40;70.20;;;;;;5072191;28;20036;-63
2022/07/23 10:20:00;;;;;;;2.90;2.03;;;30.00;71.30;;;;;;5072361;28;20177;-64
2022/07/23 10:22:32;;;;;;;2.75;1.70;;;30.00;70.40;;;;;;5071044;28;20536;-66
2022/07/23 10:25:23;;;;;;;2.83;2.30;;;30.70;68.90;;;;;;5071850;28;20060;-63
2022/07/23 10:28:10;;;;;;;3.15;2.00;;;30.30;68.80;;;;;;5072218;28;20032;-65
2022/07/23 10:31:13;;;;;;;3.45;2.30;;;30.00;70.60;;;;;;5071773;28;20511;-64
2022/07/23 10:34:15;;;;;;;2.10;1.90;;;29.60;70.90;;;;;;5071920;28;20017;-65
2022/07/23 10:36:55;;;;;;;4.05;1.85;;;29.70;71.00;;;;;;5071852;28;20034;-64
2022/07/23 10:39:28;;;;;;;3.75;2.80;;;31.30;68.00;;;;;;5072069;28;20028;-64
2022/07/23 10:42:17;;;;;;;2.92;2.63;;;30.50;69.30;;;;;;5072199;28;20435;-64
2022/07/23 10:44:45;;;;;;;5.35;2.53;;;29.20;72.80;;;;;;5071993;28;20040;-65
2022/07/23 10:50:34;;;;;;;4.60;2.30;;;29.00;72.90;;;;;;5072127;28;20042;-65
2022/07/23 10:53:07;;;;;;;2.85;2.10;;;29.40;73.00;;;;;;5070886;28;20405;-65
2022/07/23 10:55:32;;;;;;;3.08;2.40;;;30.40;70.90;;;;;;5071758;28;20476;-65
2022/07/23 10:57:58;;;;;;;4.53;2.70;;;30.50;70.50;;;;;;5071877;28;20114;-65
2022/07/23 11:00:32;;;;;;;4.55;2.63;;;30.10;71.90;;;;;;5070457;28;20044;-65
2022/07/23 11:03:26;;;;;;;2.65;2.22;;;29.70;72.90;;;;;;5072214;28;20110;-65
2022/07/23 11:05:51;;;;;;;3.05;2.20;;;29.90;72.30;;;;;;5071639;28;20039;-65
2022/07/23 11:08:21;;;;;;;3.30;2.63;;;29.70;72.70;;;;;;5072031;28;20025;-65
2022/07/23 11:11:13;;;;;;;3.35;2.60;;;29.70;73.20;;;;;;5072265;28;20033;-64
2022/07/23 11:13:45;;;;;;;2.63;2.13;;;30.20;71.50;;;;;;5067445;28;20032;-64
2022/07/23 11:16:16;;;;;;;;;;;30.80;70.70;;;;;;5070799;28;20040;-65
2022/07/23 11:18:44;;;;;;;3.50;1.90;;;31.60;69.70;;;;;;5071773;28;19907;-65
2022/07/23 11:21:31;;;;;;;4.05;2.15;;;32.50;67.30;;;;;;5071600;28;20045;-66
2022/07/23 11:23:57;;;;;;;2.45;1.98;;;32.10;66.90;;;;;;5071379;28;20029;-65
2022/07/23 11:26:43;;;;;;;4.10;2.10;;;32.70;64.90;;;;;;5071349;28;20388;-66
2022/07/23 11:29:37;;;;;;;2.70;2.20;;;32.00;65.40;;;;;;5071858;28;20033;-65
2022/07/23 11:32:15;;;;;;;3.35;2.20;;;32.30;65.90;;;;;;5071043;28;20060;-65
2022/07/23 11:34:42;;;;;;;3.80;2.42;;;33.10;65.10;;;;;;5071680;28;20059;-65
2022/07/23 11:37:11;;;;;;;3.35;2.28;;;32.10;66.10;;;;;;5070519;28;20032;-66
2022/07/23 11:39:46;;;;;;;3.20;2.47;;;32.50;66.10;;;;;;5072008;28;20025;-65
2022/07/23 11:42:18;;;;;;;2.65;2.45;;;32.50;66.30;;;;;;5071415;28;20029;-65
2022/07/23 11:44:47;;;;;;;2.75;2.47;;;32.80;64.50;;;;;;5071839;28;20028;-66
2022/07/23 11:47:13;;;;;;;2.80;2.10;;;33.20;64.10;;;;;;5071238;28;20108;-65
2022/07/23 11:49:51;;;;;;;2.88;2.30;;;32.70;65.00;;;;;;5072130;28;20124;-65
2022/07/23 11:52:18;;;;;;;6.13;2.30;;;32.00;68.00;;;;;;5071526;28;20077;-65
2022/07/23 11:54:57;;;;;;;5.15;2.40;;;31.70;68.30;;;;;;5071007;28;20033;-64
2022/07/23 11:57:31;;;;;;;3.80;2.40;;;31.80;68.20;;;;;;5071098;28;20037;-64
2022/07/23 12:00:14;;;;;;;4.30;2.10;;;31.10;68.80;;;;;;5070999;28;20032;-65
2022/07/23 12:02:41;;;;;;;3.30;2.30;;;31.40;68.90;;;;;;5069593;28;20028;-64
2022/07/23 12:05:11;;;;;;;3.30;2.70;;;31.20;68.50;;;;;;5070795;28;20401;-64
2022/07/23 12:07:39;;;;;;;5.38;2.63;;;30.90;69.10;;;;;;5071059;28;20047;-64
2022/07/23 12:10:24;;;;;;;4.70;2.70;;;30.60;70.40;;;;;;5071028;28;20029;-65
2022/07/23 12:12:52;;;;;;;5.65;2.50;;;31.40;70.20;;;;;;5070975;28;20400;-64
2022/07/23 12:15:22;;;;;;;3.65;2.60;;;31.20;70.60;;;;;;5070865;28;20016;-65
2022/07/23 12:17:55;;;;;;;3.40;2.40;;;31.50;70.00;;;;;;5071044;28;20012;-66
2022/07/23 12:20:25;;;;;;;4.07;3.15;;;32.20;69.10;;;;;;5071097;28;20443;-64
2022/07/23 12:22:55;;;;;;;3.63;2.38;;;31.80;68.70;;;;;;5070687;28;20150;-66
2022/07/23 12:25:23;;;;;;;2.78;2.55;;;31.90;67.50;;;;;;5070700;28;20438;-66
2022/07/23 12:28:10;;;;;;;2.58;1.92;;;32.40;67.50;;;;;;5070427;28;20020;-66
2022/07/23 12:30:42;;;;;;;2.50;1.83;;;32.70;65.90;;;;;;5069613;28;20032;-65
2022/07/23 12:33:09;;;;;;;;;;;33.70;65.80;;;;;;5070957;28;20036;-65
2022/07/23 12:35:44;;;;;;;3.72;2.28;;;34.10;64.90;;;;;;5070519;28;19912;-66
2022/07/23 12:38:15;;;;;;;3.30;2.00;;;35.10;62.60;;;;;;5070751;28;20027;-66
2022/07/23 12:40:56;;;;;;;5.93;2.15;;;34.70;61.80;;;;;;5070412;28;20387;-65
2022/07/23 12:43:27;;;;;;;4.80;2.50;;;33.00;64.70;;;;;;5070258;28;20044;-66